Time;durP1;ratioP1;P1;durP2;ratioP2;P2;SDS_P1;SDS_P2;PMS_P1;PMS_P2;Temp;Humidity;BMP_temperature;BMP_pressure;BME280_temperature;BME280_humidity;BME280_pressure;Samples;Min_cycle;Max_cycle;Signal;HPM_P1;HPM_P2
2023/11/14 00:00:44;;;;;;;20.77;3.50;;;;;;;;;;4976876;28;20033;-82
2023/11/14 00:03:10;;;;;;;19.10;3.65;;;;;;;;;;4974751;28;20669;-82
2023/11/14 00:05:37;;;;;;;24.25;3.33;;;;;;;;;;4978835;28;20054;-81
2023/11/14 00:08:03;;;;;;;30.83;4.22;;;;;;;;;;4977379;28;20164;-81
2023/11/14 00:10:29;;;;;;;23.08;3.60;;;;;;;;;;4975913;28;20030;-81
2023/11/14 00:12:55;;;;;;;17.33;3.03;;;;;;;;;;4960609;28;20540;-81
2023/11/14 00:15:21;;;;;;;18.30;3.03;;;;;;;;;;4965337;28;20057;-81
2023/11/14 00:17:46;;;;;;;24.00;3.75;;;;;;;;;;4959431;28;20050;-80
2023/11/14 00:20:12;;;;;;;24.48;3.45;;;;;;;;;;4980047;28;20060;-82
2023/11/14 00:22:40;;;;;;;24.60;3.92;;;;;;;;;;4982315;28;20034;-81
2023/11/14 00:25:06;;;;;;;20.83;3.00;;;;;;;;;;4966848;28;20053;-81
2023/11/14 00:27:31;;;;;;;25.95;3.90;;;;;;;;;;4963690;28;20492;-81
2023/11/14 00:29:56;;;;;;;27.17;3.67;;;;;;;;;;4984236;28;20097;-81
2023/11/14 00:32:22;;;;;;;25.15;4.28;;;;;;;;;;4961468;28;20065;-81
2023/11/14 00:34:49;;;;;;;20.92;3.55;;;;;;;;;;4978558;28;20026;-82
2023/11/14 00:37:14;;;;;;;26.05;4.00;;;;;;;;;;4982254;28;20019;-82
2023/11/14 00:39:40;;;;;;;21.00;3.47;;;;;;;;;;4957415;28;20093;-82
2023/11/14 00:42:07;;;;;;;26.02;3.70;;;;;;;;;;4980674;28;20034;-82
2023/11/14 00:44:33;;;;;;;32.08;3.92;;;;;;;;;;4967292;28;20030;-82
2023/11/14 00:46:58;;;;;;;22.88;4.13;;;;;;;;;;4962357;28;20049;-82
2023/11/14 00:49:24;;;;;;;25.48;3.92;;;;;;;;;;4957670;28;20480;-82
2023/11/14 00:51:49;;;;;;;22.42;3.58;;;;;;;;;;4975345;28;20488;-82
2023/11/14 00:54:14;;;;;;;26.15;3.85;;;;;;;;;;4976684;28;20278;-82
2023/11/14 00:56:40;;;;;;;23.10;3.53;;;;;;;;;;4966126;28;21094;-81
2023/11/14 00:59:06;;;;;;;26.42;4.53;;;;;;;;;;4980013;28;20074;-82
2023/11/14 01:01:31;;;;;;;23.85;4.05;;;;;;;;;;4965624;28;20156;-82
2023/11/14 01:03:57;;;;;;;26.50;4.57;;;;;;;;;;4947941;28;20058;-82
2023/11/14 01:06:23;;;;;;;22.55;3.60;;;;;;;;;;4965183;28;20041;-77
2023/11/14 01:08:48;;;;;;;21.58;3.17;;;;;;;;;;4968212;28;20092;-77
2023/11/14 01:11:14;;;;;;;17.08;2.83;;;;;;;;;;4948234;28;20424;-77
2023/11/14 01:13:39;;;;;;;26.60;3.92;;;;;;;;;;4950852;28;21585;-76
2023/11/14 01:16:05;;;;;;;21.25;3.47;;;;;;;;;;4964566;28;20039;-77
2023/11/14 01:18:30;;;;;;;18.15;3.08;;;;;;;;;;4966699;28;20031;-77
2023/11/14 01:20:57;;;;;;;24.00;4.28;;;;;;;;;;4968200;28;20030;-78
2023/11/14 01:23:22;;;;;;;20.40;3.65;;;;;;;;;;4950167;28;20126;-77
2023/11/14 01:25:48;;;;;;;20.50;3.33;;;;;;;;;;4964614;28;20117;-77
2023/11/14 01:28:13;;;;;;;29.10;4.05;;;;;;;;;;4971303;28;20405;-77
2023/11/14 01:30:39;;;;;;;24.67;3.60;;;;;;;;;;4982221;28;20457;-77
2023/11/14 01:33:04;;;;;;;19.83;3.40;;;;;;;;;;4980732;28;20069;-77
2023/11/14 01:35:29;;;;;;;24.00;3.70;;;;;;;;;;4960581;28;20034;-77
2023/11/14 01:37:55;;;;;;;25.50;3.88;;;;;;;;;;4979770;28;20026;-77
2023/11/14 01:40:20;;;;;;;27.05;4.70;;;;;;;;;;4981590;28;20030;-77
2023/11/14 01:42:46;;;;;;;27.17;3.75;;;;;;;;;;4981340;28;20061;-77
2023/11/14 01:45:12;;;;;;;21.30;3.25;;;;;;;;;;4965240;28;20363;-77
2023/11/14 01:47:39;;;;;;;24.20;3.35;;;;;;;;;;4975535;28;20018;-77
2023/11/14 01:50:06;;;;;;;24.17;4.28;;;;;;;;;;4977844;28;20021;-77
2023/11/14 01:52:32;;;;;;;26.20;3.47;;;;;;;;;;4973356;28;20035;-77
2023/11/14 01:54:58;;;;;;;20.25;3.25;;;;;;;;;;4979496;28;20025;-77
2023/11/14 01:57:24;;;;;;;21.77;4.07;;;;;;;;;;4958973;28;20030;-77
2023/11/14 01:59:49;;;;;;;19.85;3.42;;;;;;;;;;4968742;28;20476;-77
2023/11/14 02:02:15;;;;;;;27.88;3.92;;;;;;;;;;4953134;28;20121;-77
2023/11/14 02:04:42;;;;;;;25.23;3.88;;;;;;;;;;4977668;28;20101;-77
2023/11/14 02:07:08;;;;;;;22.02;3.65;;;;;;;;;;4976081;28;20384;-77
2023/11/14 02:09:34;;;;;;;29.00;4.07;;;;;;;;;;4961950;28;20023;-77
2023/11/14 02:11:59;;;;;;;23.85;4.30;;;;;;;;;;4956588;28;20035;-77
2023/11/14 02:14:24;;;;;;;25.20;3.80;;;;;;;;;;4977169;28;20030;-77
2023/11/14 02:16:55;;;;;;;23.20;3.83;;;;;;;;;;4957211;28;20428;-77
2023/11/14 02:19:21;;;;;;;21.67;3.50;;;;;;;;;;4976464;28;20038;-77
2023/11/14 02:21:46;;;;;;;25.08;3.65;;;;;;;;;;4961201;28;20031;-77
2023/11/14 02:24:18;;;;;;;20.55;3.40;;;;;;;;;;4978655;28;20412;-77
2023/11/14 02:26:50;;;;;;;24.05;3.22;;;;;;;;;;4974617;28;20052;-77
2023/11/14 02:29:21;;;;;;;24.55;3.35;;;;;;;;;;4970395;28;20022;-77
2023/11/14 02:31:48;;;;;;;26.95;3.60;;;;;;;;;;4973617;28;20101;-77
2023/11/14 02:34:13;;;;;;;29.83;3.83;;;;;;;;;;4961940;28;20034;-77
2023/11/14 02:36:39;;;;;;;25.30;3.78;;;;;;;;;;4975096;28;20027;-77
2023/11/14 02:39:05;;;;;;;23.30;3.22;;;;;;;;;;4977892;28;20135;-77
2023/11/14 02:41:31;;;;;;;31.27;4.90;;;;;;;;;;4971086;28;20084;-77
2023/11/14 02:44:00;;;;;;;21.73;3.30;;;;;;;;;;4973601;28;20362;-77
2023/11/14 02:46:25;;;;;;;21.42;2.88;;;;;;;;;;4954890;28;20118;-77
2023/11/14 02:48:51;;;;;;;24.83;3.58;;;;;;;;;;4975216;28;20106;-77
2023/11/14 02:51:16;;;;;;;20.92;3.33;;;;;;;;;;4985110;28;20114;-77
2023/11/14 02:53:42;;;;;;;25.63;3.58;;;;;;;;;;4975528;28;20373;-77
2023/11/14 02:56:08;;;;;;;22.42;3.55;;;;;;;;;;4974782;28;20023;-77
2023/11/14 02:58:34;;;;;;;34.05;4.47;;;;;;;;;;4960006;28;20097;-77
2023/11/14 03:00:59;;;;;;;25.05;3.13;;;;;;;;;;4975239;28;20034;-77
2023/11/14 03:03:25;;;;;;;26.70;4.45;;;;;;;;;;4972779;28;20361;-77
2023/11/14 03:05:50;;;;;;;26.17;3.75;;;;;;;;;;4958746;28;20073;-77
2023/11/14 03:08:16;;;;;;;23.98;3.35;;;;;;;;;;4978783;28;20053;-77
2023/11/14 03:10:45;;;;;;;19.45;3.53;;;;;;;;;;4974567;28;20022;-77
2023/11/14 03:13:10;;;;;;;23.15;3.28;;;;;;;;;;4958631;28;20465;-77
2023/11/14 03:15:36;;;;;;;24.50;3.40;;;;;;;;;;4953862;28;20042;-78
2023/11/14 03:18:02;;;;;;;22.20;4.03;;;;;;;;;;4973329;28;20038;-78
2023/11/14 03:20:28;;;;;;;23.00;3.45;;;;;;;;;;4956283;28;20085;-77
2023/11/14 03:22:55;;;;;;;22.77;3.40;;;;;;;;;;4961814;28;20038;-77
2023/11/14 03:25:22;;;;;;;26.67;3.35;;;;;;;;;;4962002;28;20030;-77
2023/11/14 03:27:48;;;;;;;21.15;3.15;;;;;;;;;;4981627;28;20033;-78
2023/11/14 03:30:13;;;;;;;29.92;3.70;;;;;;;;;;4979713;28;20027;-78
2023/11/14 03:32:39;;;;;;;22.58;3.85;;;;;;;;;;4977847;28;20077;-78
2023/11/14 03:35:05;;;;;;;24.25;3.85;;;;;;;;;;4978023;28;20477;-77
2023/11/14 03:37:31;;;;;;;22.85;3.20;;;;;;;;;;4966553;28;20031;-82
2023/11/14 03:39:57;;;;;;;26.92;3.67;;;;;;;;;;4961098;28;20034;-82
2023/11/14 03:42:22;;;;;;;26.50;3.67;;;;;;;;;;4963089;28;20042;-82
2023/11/14 03:44:48;;;;;;;29.30;4.50;;;;;;;;;;4985660;28;20467;-82
2023/11/14 03:47:13;;;;;;;23.73;3.65;;;;;;;;;;4983977;28;20421;-82
2023/11/14 03:49:38;;;;;;;24.77;3.65;;;;;;;;;;4974481;28;20026;-82
2023/11/14 03:52:04;;;;;;;25.42;3.65;;;;;;;;;;4958157;28;20109;-81
2023/11/14 03:54:31;;;;;;;24.10;3.67;;;;;;;;;;4962330;28;20031;-82
2023/11/14 03:56:56;;;;;;;24.83;3.03;;;;;;;;;;4978595;28;20026;-82
2023/11/14 03:59:21;;;;;;;33.10;4.18;;;;;;;;;;4961458;28;20018;-81
2023/11/14 04:01:47;;;;;;;22.35;3.17;;;;;;;;;;4967063;28;20101;-81
2023/11/14 04:04:13;;;;;;;28.30;3.40;;;;;;;;;;4976760;28;20037;-82
2023/11/14 04:06:38;;;;;;;30.60;5.32;;;;;;;;;;4959525;28;20026;-81
2023/11/14 04:09:04;;;;;;;23.20;3.28;;;;;;;;;;4971433;28;20041;-81
2023/11/14 04:11:30;;;;;;;24.70;4.32;;;;;;;;;;4975510;28;20113;-82
2023/11/14 04:13:55;;;;;;;23.95;3.70;;;;;;;;;;4962054;28;20476;-82
2023/11/14 04:16:21;;;;;;;25.63;3.80;;;;;;;;;;4978860;28;20469;-81
2023/11/14 04:18:46;;;;;;;27.77;3.78;;;;;;;;;;4973468;28;20026;-81
2023/11/14 04:21:19;;;;;;;24.02;3.40;;;;;;;;;;4977426;28;20084;-82
2023/11/14 04:23:45;;;;;;;31.50;4.23;;;;;;;;;;4979199;28;20547;-82
2023/11/14 04:26:10;;;;;;;23.50;3.28;;;;;;;;;;4978132;28;20091;-81
2023/11/14 04:28:36;;;;;;;28.67;4.28;;;;;;;;;;4983208;28;20038;-81
2023/11/14 04:31:02;;;;;;;24.00;3.53;;;;;;;;;;4959723;28;20034;-81
2023/11/14 04:33:27;;;;;;;27.60;4.13;;;;;;;;;;4975814;28;20088;-81
2023/11/14 04:35:53;;;;;;;24.50;3.85;;;;;;;;;;4973221;28;20044;-78
2023/11/14 04:38:18;;;;;;;30.08;4.32;;;;;;;;;;4956335;28;20034;-78
2023/11/14 04:40:43;;;;;;;21.58;3.65;;;;;;;;;;4977486;28;20041;-77
2023/11/14 04:43:09;;;;;;;21.33;3.50;;;;;;;;;;4977874;28;20045;-78
2023/11/14 04:45:34;;;;;;;19.55;3.40;;;;;;;;;;4954751;28;20405;-77
2023/11/14 04:48:00;;;;;;;23.80;3.22;;;;;;;;;;4977269;28;20041;-81
2023/11/14 04:50:26;;;;;;;25.60;3.75;;;;;;;;;;4973322;28;20026;-81
2023/11/14 04:52:52;;;;;;;25.85;3.92;;;;;;;;;;4970944;28;20033;-82
2023/11/14 04:55:17;;;;;;;22.63;3.88;;;;;;;;;;4956162;28;20030;-82
2023/11/14 04:57:42;;;;;;;23.60;3.75;;;;;;;;;;4957923;28;20037;-81
2023/11/14 05:00:08;;;;;;;23.02;3.40;;;;;;;;;;4975174;28;20173;-82
2023/11/14 05:02:34;;;;;;;23.20;3.55;;;;;;;;;;4973559;28;20159;-82
2023/11/14 05:05:00;;;;;;;25.92;4.10;;;;;;;;;;4976734;28;20033;-82
2023/11/14 05:07:25;;;;;;;21.05;3.33;;;;;;;;;;4957015;28;20396;-81
2023/11/14 05:09:52;;;;;;;23.73;5.32;;;;;;;;;;4974810;28;20511;-82
2023/11/14 05:12:17;;;;;;;22.08;3.03;;;;;;;;;;4970955;28;20022;-82
2023/11/14 05:14:44;;;;;;;25.83;4.32;;;;;;;;;;4957974;28;20065;-82
2023/11/14 05:17:10;;;;;;;30.50;4.38;;;;;;;;;;4958320;28;20122;-82
2023/11/14 05:19:35;;;;;;;26.88;3.80;;;;;;;;;;4971178;28;20122;-81
2023/11/14 05:22:00;;;;;;;20.65;3.55;;;;;;;;;;4977073;28;20105;-82
2023/11/14 05:24:26;;;;;;;26.15;3.65;;;;;;;;;;4966463;28;20532;-82
2023/11/14 05:26:51;;;;;;;29.75;3.55;;;;;;;;;;4953864;28;20032;-82
2023/11/14 05:29:16;;;;;;;22.08;4.10;;;;;;;;;;4978059;28;20046;-82
2023/11/14 05:31:42;;;;;;;21.80;3.83;;;;;;;;;;4975171;28;20565;-82
2023/11/14 05:34:08;;;;;;;24.30;3.47;;;;;;;;;;4966186;28;20026;-82
2023/11/14 05:36:35;;;;;;;20.55;3.97;;;;;;;;;;4983186;28;20396;-81
2023/11/14 05:39:00;;;;;;;21.92;2.90;;;;;;;;;;4979994;28;20118;-82
2023/11/14 05:41:26;;;;;;;25.33;3.90;;;;;;;;;;4975683;28;20113;-81
2023/11/14 05:43:51;;;;;;;23.00;3.65;;;;;;;;;;4973562;28;20046;-82
2023/11/14 05:46:17;;;;;;;24.80;3.50;;;;;;;;;;4974653;28;20109;-78
2023/11/14 05:48:42;;;;;;;22.05;3.38;;;;;;;;;;4978848;28;20030;-77
2023/11/14 05:51:08;;;;;;;19.33;3.15;;;;;;;;;;4966286;28;20488;-77
2023/11/14 05:53:33;;;;;;;27.95;4.05;;;;;;;;;;4973609;28;20038;-77
2023/11/14 05:55:59;;;;;;;19.50;2.70;;;;;;;;;;4946433;28;20392;-82
2023/11/14 05:58:24;;;;;;;27.15;3.97;;;;;;;;;;4976828;28;20034;-81
2023/11/14 06:00:50;;;;;;;23.17;4.07;;;;;;;;;;4971282;28;20078;-82
2023/11/14 06:03:19;;;;;;;25.30;3.38;;;;;;;;;;4977328;28;20484;-82
2023/11/14 06:05:45;;;;;;;25.30;4.20;;;;;;;;;;4975591;28;20393;-82
2023/11/14 06:08:10;;;;;;;25.10;3.65;;;;;;;;;;4959149;28;20023;-82
2023/11/14 06:10:35;;;;;;;23.00;3.40;;;;;;;;;;4967363;28;20451;-82
2023/11/14 06:13:03;;;;;;;24.05;3.60;;;;;;;;;;4970194;28;20033;-81
2023/11/14 06:15:29;;;;;;;24.98;3.78;;;;;;;;;;4971776;28;20417;-81
2023/11/14 06:17:54;;;;;;;18.60;3.10;;;;;;;;;;4968942;28;20049;-81
2023/11/14 06:20:22;;;;;;;21.60;3.83;;;;;;;;;;4969046;28;20477;-81
2023/11/14 06:22:49;;;;;;;24.58;3.97;;;;;;;;;;4977994;28;20567;-82
2023/11/14 06:25:14;;;;;;;24.67;4.20;;;;;;;;;;4978252;28;20023;-81
2023/11/14 06:27:40;;;;;;;23.98;3.13;;;;;;;;;;4956902;28;20527;-81
2023/11/14 06:30:06;;;;;;;25.80;3.72;;;;;;;;;;4975329;28;20401;-82
2023/11/14 06:32:33;;;;;;;26.73;3.40;;;;;;;;;;4971496;28;20035;-82
2023/11/14 06:34:59;;;;;;;22.35;3.53;;;;;;;;;;4976181;28;20026;-81
2023/11/14 06:37:25;;;;;;;38.10;4.22;;;;;;;;;;4970167;28;20129;-82
2023/11/14 06:39:52;;;;;;;30.33;3.90;;;;;;;;;;4973851;28;20026;-81
2023/11/14 06:42:18;;;;;;;32.13;3.65;;;;;;;;;;4976971;28;20641;-81
2023/11/14 06:44:44;;;;;;;25.08;3.83;;;;;;;;;;4977397;28;20084;-82
2023/11/14 06:47:10;;;;;;;19.17;3.33;;;;;;;;;;4971383;28;20027;-82
2023/11/14 06:49:35;;;;;;;26.77;4.50;;;;;;;;;;4955605;28;20392;-81
2023/11/14 06:52:01;;;;;;;28.80;4.25;;;;;;;;;;4971300;28;20081;-81
2023/11/14 06:54:26;;;;;;;25.25;3.80;;;;;;;;;;4952492;28;20038;-82
2023/11/14 06:56:51;;;;;;;26.58;4.05;;;;;;;;;;4956010;28;20381;-77
2023/11/14 06:59:17;;;;;;;24.17;3.95;;;;;;;;;;4972954;28;20019;-78
2023/11/14 07:01:47;;;;;;;28.60;4.03;;;;;;;;;;4971760;28;20528;-77
2023/11/14 07:04:13;;;;;;;24.88;4.40;;;;;;;;;;4960698;28;20448;-77
2023/11/14 07:06:38;;;;;;;29.17;4.28;;;;;;;;;;4970199;28;20034;-77
2023/11/14 07:09:03;;;;;;;20.05;3.50;;;;;;;;;;4977290;28;20072;-77
2023/11/14 07:11:29;;;;;;;26.65;3.70;;;;;;;;;;4972270;28;20031;-77
2023/11/14 07:13:54;;;;;;;22.42;3.88;;;;;;;;;;4988951;28;20100;-77
2023/11/14 07:16:19;;;;;;;23.77;3.53;;;;;;;;;;4972729;28;20089;-77
2023/11/14 07:18:46;;;;;;;24.45;4.68;;;;;;;;;;4972853;28;20026;-78
2023/11/14 07:21:12;;;;;;;19.27;3.28;;;;;;;;;;4979170;28;20026;-77
2023/11/14 07:23:38;;;;;;;22.55;3.97;;;;;;;;;;4965502;28;20377;-77
2023/11/14 07:26:04;;;;;;;20.77;3.20;;;;;;;;;;4960307;28;20053;-78
2023/11/14 07:28:30;;;;;;;21.15;2.95;;;;;;;;;;4959733;28;20511;-77
2023/11/14 07:30:56;;;;;;;22.30;3.35;;;;;;;;;;4973444;28;20031;-77
2023/11/14 07:33:23;;;;;;;26.30;3.63;;;;;;;;;;4981534;28;20116;-78
2023/11/14 07:35:48;;;;;;;21.58;3.28;;;;;;;;;;4955323;28;20022;-77
2023/11/14 07:38:16;;;;;;;20.20;3.08;;;;;;;;;;4975860;28;20511;-78
2023/11/14 07:40:41;;;;;;;18.25;3.10;;;;;;;;;;4958187;28;20034;-78
2023/11/14 07:43:07;;;;;;;21.77;3.17;;;;;;;;;;4975539;28;20031;-78
2023/11/14 07:45:32;;;;;;;19.10;3.05;;;;;;;;;;4953938;28;20062;-77
2023/11/14 07:47:58;;;;;;;17.83;3.03;;;;;;;;;;4956180;28;20054;-77
2023/11/14 07:50:25;;;;;;;19.77;2.95;;;;;;;;;;4958028;28;20030;-77
2023/11/14 07:52:50;;;;;;;21.90;3.50;;;;;;;;;;4971465;28;20038;-77
2023/11/14 07:55:16;;;;;;;17.83;3.70;;;;;;;;;;4973699;28;20034;-77
2023/11/14 07:57:42;;;;;;;17.83;3.10;;;;;;;;;;4971096;28;20669;-77
2023/11/14 08:00:08;;;;;;;20.80;3.65;;;;;;;;;;4956005;28;20159;-78
2023/11/14 08:02:34;;;;;;;22.23;3.22;;;;;;;;;;4972429;28;20031;-77
2023/11/14 08:04:59;;;;;;;20.73;3.35;;;;;;;;;;4955908;28;20022;-77
2023/11/14 08:07:24;;;;;;;24.00;3.80;;;;;;;;;;4970278;28;20078;-78
2023/11/14 08:09:50;;;;;;;17.30;3.42;;;;;;;;;;4954097;28;20025;-78
2023/11/14 08:12:15;;;;;;;20.02;3.28;;;;;;;;;;4979132;28;20068;-77
2023/11/14 08:14:41;;;;;;;19.67;3.50;;;;;;;;;;4977002;28;20084;-78
2023/11/14 08:17:06;;;;;;;22.10;3.63;;;;;;;;;;4978234;28;20030;-77
2023/11/14 08:19:33;;;;;;;22.95;4.47;;;;;;;;;;4969217;28;20031;-77
2023/11/14 08:22:04;;;;;;;18.50;4.05;;;;;;;;;;4957628;28;20031;-77
2023/11/14 08:24:30;;;;;;;16.65;3.95;;;;;;;;;;4975044;28;20105;-77
2023/11/14 08:26:57;;;;;;;20.40;4.35;;;;;;;;;;4960855;28;20026;-77
2023/11/14 08:29:23;;;;;;;21.10;3.78;;;;;;;;;;4937915;28;20030;-78
2023/11/14 08:31:49;;;;;;;18.60;3.60;;;;;;;;;;4978739;28;20084;-77
2023/11/14 08:34:15;;;;;;;20.17;3.92;;;;;;;;;;4954799;28;20027;-77
2023/11/14 08:36:40;;;;;;;23.00;3.75;;;;;;;;;;4972969;28;20512;-77
2023/11/14 08:39:10;;;;;;;22.10;3.67;;;;;;;;;;4972915;28;20480;-77
2023/11/14 08:41:36;;;;;;;21.70;4.05;;;;;;;;;;4981406;28;20068;-78
2023/11/14 08:44:02;;;;;;;20.17;3.58;;;;;;;;;;4956672;28;20061;-77
2023/11/14 08:46:28;;;;;;;18.15;3.17;;;;;;;;;;4968771;28;20039;-77
2023/11/14 08:48:54;;;;;;;20.70;4.38;;;;;;;;;;4975270;28;20394;-77
2023/11/14 08:51:21;;;;;;;22.92;3.65;;;;;;;;;;4976147;28;20049;-77
2023/11/14 08:53:46;;;;;;;23.85;3.83;;;;;;;;;;4967070;28;20512;-77
2023/11/14 08:56:11;;;;;;;20.52;3.33;;;;;;;;;;4954766;28;20043;-77
2023/11/14 08:58:37;;;;;;;18.45;3.63;;;;;;;;;;4967172;28;20026;-77
2023/11/14 09:01:04;;;;;;;22.88;3.42;;;;;;;;;;4954514;28;20121;-77
2023/11/14 09:03:29;;;;;;;22.42;3.47;;;;;;;;;;4973614;28;20058;-78
2023/11/14 09:05:55;;;;;;;19.80;3.70;;;;;;;;;;4960749;28;20556;-77
2023/11/14 09:08:20;;;;;;;21.42;4.07;;;;;;;;;;4973735;28;20458;-78
2023/11/14 09:10:45;;;;;;;22.83;4.38;;;;;;;;;;4950006;28;20033;-77
2023/11/14 09:13:14;;;;;;;24.70;4.50;;;;;;;;;;4952066;28;20400;-77
2023/11/14 09:15:40;;;;;;;25.90;3.85;;;;;;;;;;4967755;28;20149;-78
2023/11/14 09:18:06;;;;;;;23.85;3.85;;;;;;;;;;4968101;28;20567;-77
2023/11/14 09:20:31;;;;;;;19.98;3.75;;;;;;;;;;4976438;28;20022;-78
2023/11/14 09:22:56;;;;;;;24.25;3.63;;;;;;;;;;4970894;28;20034;-78
2023/11/14 09:25:22;;;;;;;20.13;3.95;;;;;;;;;;4957242;28;20365;-78
2023/11/14 09:27:48;;;;;;;21.13;3.67;;;;;;;;;;4975200;28;20065;-78
2023/11/14 09:30:14;;;;;;;17.60;3.03;;;;;;;;;;4972856;28;20030;-77
2023/11/14 09:32:42;;;;;;;20.48;3.50;;;;;;;;;;4973964;28;20089;-77
2023/11/14 09:35:10;;;;;;;26.00;3.85;;;;;;;;;;4956586;28;20547;-77
2023/11/14 09:37:35;;;;;;;23.02;3.85;;;;;;;;;;4975118;28;20019;-77
2023/11/14 09:40:01;;;;;;;27.20;3.95;;;;;;;;;;4957335;28;20477;-77
2023/11/14 09:42:26;;;;;;;24.00;4.07;;;;;;;;;;4974276;28;20045;-78
2023/11/14 09:44:53;;;;;;;28.52;4.50;;;;;;;;;;4973981;28;20031;-77
2023/11/14 09:47:18;;;;;;;24.85;4.28;;;;;;;;;;4973489;28;20033;-78
2023/11/14 09:49:44;;;;;;;23.17;4.50;;;;;;;;;;4976902;28;20023;-77
2023/11/14 09:52:12;;;;;;;26.45;3.80;;;;;;;;;;4967975;28;20023;-78
2023/11/14 09:54:41;;;;;;;25.98;4.18;;;;;;;;;;4969750;28;20053;-78
2023/11/14 09:57:11;;;;;;;20.80;3.80;;;;;;;;;;4968222;28;20105;-78
2023/11/14 09:59:41;;;;;;;28.70;4.40;;;;;;;;;;4956887;28;20030;-78
2023/11/14 10:02:07;;;;;;;24.13;4.13;;;;;;;;;;4976740;28;20030;-77
2023/11/14 10:04:32;;;;;;;19.35;3.75;;;;;;;;;;4984224;28;20042;-78
2023/11/14 10:06:58;;;;;;;26.60;4.82;;;;;;;;;;4977236;28;20030;-77
2023/11/14 10:09:25;;;;;;;21.35;4.45;;;;;;;;;;4972417;28;20023;-78
2023/11/14 10:11:52;;;;;;;25.20;4.93;;;;;;;;;;4970822;28;20465;-78
2023/11/14 10:14:19;;;;;;;28.95;4.65;;;;;;;;;;4973954;28;20026;-78
2023/11/14 10:16:44;;;;;;;27.10;4.60;;;;;;;;;;4972751;28;20698;-78
2023/11/14 10:19:14;;;;;;;25.23;5.15;;;;;;;;;;4973658;28;20026;-78
2023/11/14 10:21:40;;;;;;;26.45;4.75;;;;;;;;;;4977619;28;21287;-78
2023/11/14 10:24:16;;;;;;;20.02;4.47;;;;;;;;;;4961043;28;20056;-77
2023/11/14 10:26:50;;;;;;;30.80;5.07;;;;;;;;;;4966888;28;20034;-82
2023/11/14 10:29:17;;;;;;;26.50;4.68;;;;;;;;;;4965491;28;20101;-82
2023/11/14 10:31:43;;;;;;;24.92;4.55;;;;;;;;;;4972257;28;20081;-82
2023/11/14 10:34:30;;;;;;;21.65;4.65;;;;;;;;;;4971264;28;20034;-81
2023/11/14 10:36:56;;;;;;;22.25;4.68;;;;;;;;;;4957598;28;20412;-82
2023/11/14 10:39:23;;;;;;;28.20;4.75;;;;;;;;;;4956646;28;20440;-82
2023/11/14 10:41:50;;;;;;;25.65;4.90;;;;;;;;;;4955587;28;20034;-82
2023/11/14 10:44:16;;;;;;;29.73;3.95;;;;;;;;;;4964920;28;20507;-82
2023/11/14 10:46:48;;;;;;;19.88;4.30;;;;;;;;;;4958446;28;20423;-82
2023/11/14 10:49:13;;;;;;;20.48;3.78;;;;;;;;;;4980611;28;20035;-82
2023/11/14 10:51:41;;;;;;;23.77;4.93;;;;;;;;;;4956012;28;20031;-82
2023/11/14 10:54:07;;;;;;;24.27;4.97;;;;;;;;;;4971733;28;20049;-82
2023/11/14 10:56:37;;;;;;;20.23;4.05;;;;;;;;;;4971525;28;20037;-82
2023/11/14 10:59:15;;;;;;;20.83;4.75;;;;;;;;;;4972392;28;20031;-82
2023/11/14 11:01:45;;;;;;;18.08;4.00;;;;;;;;;;4973476;28;20081;-82
2023/11/14 11:04:13;;;;;;;17.77;4.05;;;;;;;;;;4950386;28;20051;-82
2023/11/14 11:06:39;;;;;;;24.40;5.45;;;;;;;;;;4972380;28;20065;-82
2023/11/14 11:09:05;;;;;;;14.52;4.00;;;;;;;;;;4955586;28;20119;-81
2023/11/14 11:11:33;;;;;;;20.50;4.22;;;;;;;;;;4973251;28;20037;-82
2023/11/14 11:14:04;;;;;;;18.35;3.65;;;;;;;;;;4966936;28;20452;-81
2023/11/14 11:16:43;;;;;;;16.13;3.92;;;;;;;;;;4984703;28;20030;-81
2023/11/14 11:19:21;;;;;;;20.27;4.28;;;;;;;;;;4975607;28;20015;-82
2023/11/14 11:22:00;;;;;;;23.80;4.47;;;;;;;;;;4977499;28;20050;-82
2023/11/14 11:24:27;;;;;;;17.02;4.70;;;;;;;;;;4961108;28;20035;-82
2023/11/14 11:27:05;;;;;;;14.65;4.32;;;;;;;;;;4962756;28;20097;-82
2023/11/14 11:29:54;;;;;;;17.95;4.82;;;;;;;;;;4954843;28;20117;-82
2023/11/14 11:32:28;;;;;;;17.95;4.13;;;;;;;;;;4960886;28;20035;-82
2023/11/14 11:35:22;;;;;;;19.77;5.05;;;;;;;;;;4951575;28;20579;-82
2023/11/14 11:37:52;;;;;;;16.98;4.85;;;;;;;;;;4972800;28;20138;-82
2023/11/14 11:40:25;;;;;;;23.25;6.05;;;;;;;;;;4971792;28;20026;-81
2023/11/14 11:43:20;;;;;;;17.88;5.25;;;;;;;;;;4972768;28;20166;-82
2023/11/14 11:45:49;;;;;;;15.40;4.43;;;;;;;;;;4971529;28;20582;-82
2023/11/14 11:48:24;;;;;;;19.13;5.35;;;;;;;;;;4979623;28;20034;-82
2023/11/14 11:50:51;;;;;;;23.25;5.22;;;;;;;;;;4950411;28;20495;-82
2023/11/14 11:53:37;;;;;;;18.55;4.57;;;;;;;;;;4956941;28;20078;-82
2023/11/14 11:56:10;;;;;;;14.88;3.95;;;;;;;;;;4967087;28;20125;-82
2023/11/14 11:58:47;;;;;;;19.13;4.70;;;;;;;;;;4974328;28;20038;-82
2023/11/14 12:01:14;;;;;;;15.68;4.47;;;;;;;;;;4959227;28;20044;-81
2023/11/14 12:03:39;;;;;;;14.40;4.38;;;;;;;;;;4976558;28;20504;-82
2023/11/14 12:06:09;;;;;;;20.80;4.15;;;;;;;;;;4975871;28;20093;-81
2023/11/14 12:08:36;;;;;;;20.67;4.18;;;;;;;;;;4958575;28;20031;-82
2023/11/14 12:11:06;;;;;;;16.90;4.32;;;;;;;;;;4960915;28;20030;-83
2023/11/14 12:13:31;;;;;;;19.15;5.07;;;;;;;;;;4979928;28;20030;-82
2023/11/14 12:15:59;;;;;;;15.65;3.67;;;;;;;;;;4973071;28;20480;-82
2023/11/14 12:18:25;;;;;;;17.90;3.92;;;;;;;;;;4971421;28;20194;-82
2023/11/14 12:20:50;;;;;;;14.43;3.83;;;;;;;;;;4970763;28;20031;-82
2023/11/14 12:23:18;;;;;;;16.25;3.67;;;;;;;;;;4971723;28;20039;-82
2023/11/14 12:25:43;;;;;;;17.65;4.32;;;;;;;;;;4969097;28;20035;-81
2023/11/14 12:28:09;;;;;;;13.95;3.00;;;;;;;;;;4956353;28;20412;-82
2023/11/14 12:30:34;;;;;;;11.55;2.83;;;;;;;;;;4970739;28;20023;-82
2023/11/14 12:33:08;;;;;;;14.77;2.88;;;;;;;;;;4971633;28;20113;-82
2023/11/14 12:35:50;;;;;;;13.75;2.60;;;;;;;;;;4968210;28;20035;-82
2023/11/14 12:38:29;;;;;;;12.80;3.05;;;;;;;;;;4966860;28;20565;-82
2023/11/14 12:41:18;;;;;;;9.48;2.25;;;;;;;;;;4966515;28;20046;-82
2023/11/14 12:43:48;;;;;;;9.32;2.40;;;;;;;;;;4967982;28;20087;-82
2023/11/14 12:46:21;;;;;;;10.15;2.00;;;;;;;;;;4956651;28;20116;-78
2023/11/14 12:49:06;;;;;;;14.88;3.08;;;;;;;;;;4965225;28;20259;-78
2023/11/14 12:51:33;;;;;;;7.88;2.25;;;;;;;;;;4967036;28;20435;-77
2023/11/14 12:53:59;;;;;;;9.27;2.00;;;;;;;;;;4969505;28;20463;-78
2023/11/14 12:56:24;;;;;;;10.70;2.38;;;;;;;;;;4975397;28;20121;-82
2023/11/14 12:58:50;;;;;;;10.13;2.42;;;;;;;;;;4968281;28;20502;-82
2023/11/14 13:01:15;;;;;;;6.68;1.92;;;;;;;;;;4955043;28;20397;-82
2023/11/14 13:03:42;;;;;;;8.02;1.90;;;;;;;;;;4973408;28;20097;-83
2023/11/14 13:06:08;;;;;;;8.38;1.90;;;;;;;;;;4967947;28;20038;-83
2023/11/14 13:08:33;;;;;;;6.20;1.50;;;;;;;;;;4951791;28;20043;-82
2023/11/14 13:10:59;;;;;;;8.30;1.70;;;;;;;;;;4952993;28;20033;-82
2023/11/14 13:13:24;;;;;;;5.35;1.60;;;;;;;;;;4956966;28;20043;-82
2023/11/14 13:15:49;;;;;;;6.95;1.58;;;;;;;;;;4967134;28;20073;-82
2023/11/14 13:18:15;;;;;;;7.25;2.15;;;;;;;;;;4969866;28;20412;-82
2023/11/14 13:20:40;;;;;;;7.35;1.83;;;;;;;;;;4965505;28;20455;-82
2023/11/14 13:23:07;;;;;;;6.22;1.60;;;;;;;;;;4970149;28;20092;-82
2023/11/14 13:25:33;;;;;;;5.97;2.05;;;;;;;;;;4961719;28;20038;-82
2023/11/14 13:27:58;;;;;;;6.05;1.88;;;;;;;;;;4952277;28;20030;-82
2023/11/14 13:30:23;;;;;;;3.33;1.60;;;;;;;;;;4965904;28;20437;-82
2023/11/14 13:32:49;;;;;;;6.90;2.17;;;;;;;;;;4949892;28;20396;-82
2023/11/14 13:35:15;;;;;;;9.63;2.00;;;;;;;;;;4969088;28;20026;-82
2023/11/14 13:37:41;;;;;;;4.68;1.55;;;;;;;;;;4965299;28;20408;-82
2023/11/14 13:40:08;;;;;;;9.00;1.70;;;;;;;;;;4949366;28;20027;-82
2023/11/14 13:42:34;;;;;;;8.32;2.20;;;;;;;;;;4944054;28;20046;-82
2023/11/14 13:45:00;;;;;;;9.25;2.03;;;;;;;;;;4965376;28;20033;-82
2023/11/14 13:47:25;;;;;;;9.07;2.17;;;;;;;;;;4969064;28;20034;-82
2023/11/14 13:49:50;;;;;;;9.18;2.35;;;;;;;;;;4976775;28;20120;-82
2023/11/14 13:52:16;;;;;;;8.88;2.25;;;;;;;;;;4967954;28;20056;-82
2023/11/14 13:54:42;;;;;;;10.52;2.22;;;;;;;;;;4953411;28;20034;-82
2023/11/14 13:57:09;;;;;;;6.03;1.98;;;;;;;;;;4952879;28;20199;-82
2023/11/14 13:59:34;;;;;;;9.35;2.13;;;;;;;;;;4971257;28;20500;-82
2023/11/14 14:02:00;;;;;;;10.25;2.45;;;;;;;;;;4959323;28;20038;-82
2023/11/14 14:04:25;;;;;;;15.25;2.75;;;;;;;;;;4969393;28;20089;-82
2023/11/14 14:06:50;;;;;;;7.38;2.63;;;;;;;;;;4966452;28;20045;-81
2023/11/14 14:09:16;;;;;;;13.30;2.47;;;;;;;;;;4970616;28;20062;-82
2023/11/14 14:11:42;;;;;;;8.52;2.45;;;;;;;;;;4971402;28;20046;-81
2023/11/14 14:14:07;;;;;;;10.38;2.28;;;;;;;;;;4970002;28;20027;-83
2023/11/14 14:16:33;;;;;;;9.98;2.25;;;;;;;;;;4968590;28;20039;-82
2023/11/14 14:18:59;;;;;;;9.57;2.38;;;;;;;;;;4951462;28;20031;-82
2023/11/14 14:21:29;;;;;;;8.57;2.10;;;;;;;;;;4975976;28;20049;-82
2023/11/14 14:23:55;;;;;;;7.57;1.95;;;;;;;;;;4967944;28;20042;-82
2023/11/14 14:26:20;;;;;;;7.78;1.92;;;;;;;;;;4976203;28;20038;-82
2023/11/14 14:28:47;;;;;;;5.18;1.88;;;;;;;;;;4963302;28;20038;-82